sensor_id;sensor_type;location;lat;lon;timestamp;P1;durP1;ratioP1;P2;durP2;ratioP2
33459;SDS011;19795;53.160;6.612;2022-11-02T05:47:04;7.80;;;2.97;;
33459;SDS011;19795;53.160;6.612;2022-11-02T05:52:05;8.90;;;2.75;;
33459;SDS011;19795;53.160;6.612;2022-11-02T05:54:31;6.05;;;2.60;;
33459;SDS011;19795;53.160;6.612;2022-11-02T05:56:56;8.20;;;3.10;;
33459;SDS011;19795;53.160;6.612;2022-11-02T05:59:22;8.80;;;2.78;;
33459;SDS011;19795;53.160;6.612;2022-11-02T06:01:48;7.97;;;3.00;;
33459;SDS011;19795;53.160;6.612;2022-11-02T06:04:13;12.57;;;3.45;;
33459;SDS011;19795;53.160;6.612;2022-11-02T06:06:39;12.13;;;3.53;;
33459;SDS011;19795;53.160;6.612;2022-11-02T06:09:04;12.10;;;3.38;;
33459;SDS011;19795;53.160;6.612;2022-11-02T06:11:30;14.35;;;3.83;;
33459;SDS011;19795;53.160;6.612;2022-11-02T06:13:56;10.85;;;3.40;;
33459;SDS011;19795;53.160;6.612;2022-11-02T06:16:21;8.95;;;3.17;;
33459;SDS011;19795;53.160;6.612;2022-11-02T06:18:47;10.05;;;3.33;;
33459;SDS011;19795;53.160;6.612;2022-11-02T06:21:13;10.43;;;3.22;;
33459;SDS011;19795;53.160;6.612;2022-11-02T06:23:39;10.73;;;3.30;;
33459;SDS011;19795;53.160;6.612;2022-11-02T06:26:08;8.07;;;2.97;;
33459;SDS011;19795;53.160;6.612;2022-11-02T06:28:35;14.05;;;3.03;;
33459;SDS011;19795;53.160;6.612;2022-11-02T06:31:00;8.88;;;2.80;;
33459;SDS011;19795;53.160;6.612;2022-11-02T06:33:26;7.88;;;2.80;;
33459;SDS011;19795;53.160;6.612;2022-11-02T06:35:52;10.50;;;2.92;;
33459;SDS011;19795;53.160;6.612;2022-11-02T06:38:18;10.73;;;3.17;;
33459;SDS011;19795;53.160;6.612;2022-11-02T06:40:57;5.93;;;2.75;;
33459;SDS011;19795;53.160;6.612;2022-11-02T06:43:28;9.20;;;2.95;;
33459;SDS011;19795;53.160;6.612;2022-11-02T06:45:54;10.02;;;3.38;;
33459;SDS011;19795;53.160;6.612;2022-11-02T06:48:20;9.07;;;2.83;;
33459;SDS011;19795;53.160;6.612;2022-11-02T06:50:46;9.32;;;3.47;;
33459;SDS011;19795;53.160;6.612;2022-11-02T06:53:11;9.43;;;2.90;;
33459;SDS011;19795;53.160;6.612;2022-11-02T06:55:37;14.45;;;3.60;;
33459;SDS011;19795;53.160;6.612;2022-11-02T06:58:03;10.63;;;3.35;;
33459;SDS011;19795;53.160;6.612;2022-11-02T07:00:28;10.98;;;3.55;;
33459;SDS011;19795;53.160;6.612;2022-11-02T07:02:58;11.50;;;3.90;;
33459;SDS011;19795;53.160;6.612;2022-11-02T07:05:34;8.50;;;2.95;;
33459;SDS011;19795;53.160;6.612;2022-11-02T07:08:00;11.93;;;3.58;;
33459;SDS011;19795;53.160;6.612;2022-11-02T07:10:26;11.45;;;3.47;;
33459;SDS011;19795;53.160;6.612;2022-11-02T07:12:52;11.10;;;3.92;;
33459;SDS011;19795;53.160;6.612;2022-11-02T07:15:22;10.50;;;3.72;;
33459;SDS011;19795;53.160;6.612;2022-11-02T07:17:49;11.13;;;3.60;;
33459;SDS011;19795;53.160;6.612;2022-11-02T07:20:15;7.53;;;3.53;;
33459;SDS011;19795;53.160;6.612;2022-11-02T07:22:41;10.23;;;2.95;;
33459;SDS011;19795;53.160;6.612;2022-11-02T07:25:15;8.45;;;2.95;;
33459;SDS011;19795;53.160;6.612;2022-11-02T07:27:41;10.13;;;3.05;;
33459;SDS011;19795;53.160;6.612;2022-11-02T07:30:06;11.00;;;2.67;;
33459;SDS011;19795;53.160;6.612;2022-11-02T07:32:39;8.70;;;3.00;;
33459;SDS011;19795;53.160;6.612;2022-11-02T07:35:06;11.93;;;2.70;;
33459;SDS011;19795;53.160;6.612;2022-11-02T07:37:33;13.45;;;3.00;;
33459;SDS011;19795;53.160;6.612;2022-11-02T07:39:58;11.18;;;2.60;;
33459;SDS011;19795;53.160;6.612;2022-11-02T07:42:24;7.53;;;2.75;;
33459;SDS011;19795;53.160;6.612;2022-11-02T07:44:49;5.50;;;1.70;;
33459;SDS011;19795;53.160;6.612;2022-11-02T07:47:15;7.13;;;1.65;;
33459;SDS011;19795;53.160;6.612;2022-11-02T07:49:41;6.05;;;1.88;;
33459;SDS011;19795;53.160;6.612;2022-11-02T07:52:06;8.20;;;2.08;;
33459;SDS011;19795;53.160;6.612;2022-11-02T07:54:32;7.85;;;1.75;;
33459;SDS011;19795;53.160;6.612;2022-11-02T07:56:57;6.50;;;1.50;;
33459;SDS011;19795;53.160;6.612;2022-11-02T07:59:23;6.50;;;1.45;;
33459;SDS011;19795;53.160;6.612;2022-11-02T08:01:49;3.90;;;1.25;;
33459;SDS011;19795;53.160;6.612;2022-11-02T08:04:14;5.78;;;1.35;;
33459;SDS011;19795;53.160;6.612;2022-11-02T08:06:40;8.25;;;1.65;;
33459;SDS011;19795;53.160;6.612;2022-11-02T08:09:06;8.23;;;1.45;;
33459;SDS011;19795;53.160;6.612;2022-11-02T08:11:31;7.35;;;2.00;;
33459;SDS011;19795;53.160;6.612;2022-11-02T08:13:57;3.00;;;1.15;;
33459;SDS011;19795;53.160;6.612;2022-11-02T08:16:23;5.50;;;1.63;;
33459;SDS011;19795;53.160;6.612;2022-11-02T08:18:48;5.15;;;1.40;;
33459;SDS011;19795;53.160;6.612;2022-11-02T08:21:14;3.80;;;1.10;;
33459;SDS011;19795;53.160;6.612;2022-11-02T08:23:39;4.88;;;1.38;;
33459;SDS011;19795;53.160;6.612;2022-11-02T08:26:05;7.82;;;1.45;;
33459;SDS011;19795;53.160;6.612;2022-11-02T08:28:31;5.28;;;1.38;;
33459;SDS011;19795;53.160;6.612;2022-11-02T08:30:59;6.90;;;1.00;;
33459;SDS011;19795;53.160;6.612;2022-11-02T08:33:25;3.63;;;1.17;;
33459;SDS011;19795;53.160;6.612;2022-11-02T08:35:51;7.88;;;1.23;;
33459;SDS011;19795;53.160;6.612;2022-11-02T08:38:18;6.45;;;1.50;;
33459;SDS011;19795;53.160;6.612;2022-11-02T08:40:46;7.35;;;1.33;;
33459;SDS011;19795;53.160;6.612;2022-11-02T08:43:12;3.85;;;1.20;;
33459;SDS011;19795;53.160;6.612;2022-11-02T08:45:41;6.80;;;1.42;;
33459;SDS011;19795;53.160;6.612;2022-11-02T08:48:08;9.43;;;1.70;;
33459;SDS011;19795;53.160;6.612;2022-11-02T08:50:34;4.78;;;1.15;;
33459;SDS011;19795;53.160;6.612;2022-11-02T08:53:00;7.38;;;1.10;;
33459;SDS011;19795;53.160;6.612;2022-11-02T08:55:26;8.00;;;1.48;;
33459;SDS011;19795;53.160;6.612;2022-11-02T08:57:53;5.57;;;1.33;;
33459;SDS011;19795;53.160;6.612;2022-11-02T09:00:20;6.85;;;1.70;;
33459;SDS011;19795;53.160;6.612;2022-11-02T09:03:01;4.07;;;1.08;;
33459;SDS011;19795;53.160;6.612;2022-11-02T09:05:29;6.15;;;1.27;;
33459;SDS011;19795;53.160;6.612;2022-11-02T09:07:58;5.43;;;1.25;;
33459;SDS011;19795;53.160;6.612;2022-11-02T09:10:25;2.50;;;0.88;;
33459;SDS011;19795;53.160;6.612;2022-11-02T09:12:52;7.53;;;1.20;;
33459;SDS011;19795;53.160;6.612;2022-11-02T09:15:18;9.15;;;1.65;;
33459;SDS011;19795;53.160;6.612;2022-11-02T09:17:47;5.45;;;0.98;;
33459;SDS011;19795;53.160;6.612;2022-11-02T09:20:16;7.03;;;1.20;;
33459;SDS011;19795;53.160;6.612;2022-11-02T09:22:43;8.32;;;1.35;;
33459;SDS011;19795;53.160;6.612;2022-11-02T09:25:09;7.55;;;1.42;;
33459;SDS011;19795;53.160;6.612;2022-11-02T09:27:35;7.50;;;1.00;;
33459;SDS011;19795;53.160;6.612;2022-11-02T09:30:01;7.35;;;1.40;;
33459;SDS011;19795;53.160;6.612;2022-11-02T09:32:28;6.28;;;0.95;;
33459;SDS011;19795;53.160;6.612;2022-11-02T09:34:57;6.85;;;1.30;;
33459;SDS011;19795;53.160;6.612;2022-11-02T09:37:24;6.75;;;1.10;;
33459;SDS011;19795;53.160;6.612;2022-11-02T09:39:50;7.78;;;1.30;;
33459;SDS011;19795;53.160;6.612;2022-11-02T09:47:26;8.32;;;1.40;;
33459;SDS011;19795;53.160;6.612;2022-11-02T09:49:55;7.93;;;1.10;;
33459;SDS011;19795;53.160;6.612;2022-11-02T09:52:31;8.50;;;1.80;;
33459;SDS011;19795;53.160;6.612;2022-11-02T09:54:59;8.10;;;1.55;;
33459;SDS011;19795;53.160;6.612;2022-11-02T09:57:31;5.55;;;1.25;;
33459;SDS011;19795;53.160;6.612;2022-11-02T09:59:57;15.57;;;2.00;;
33459;SDS011;19795;53.160;6.612;2022-11-02T10:02:27;6.53;;;1.48;;
33459;SDS011;19795;53.160;6.612;2022-11-02T10:13:04;9.35;;;1.20;;
33459;SDS011;19795;53.160;6.612;2022-11-02T10:15:53;12.35;;;1.67;;
33459;SDS011;19795;53.160;6.612;2022-11-02T10:18:25;10.48;;;1.40;;
33459;SDS011;19795;53.160;6.612;2022-11-02T10:20:59;9.73;;;1.30;;
33459;SDS011;19795;53.160;6.612;2022-11-02T10:23:40;8.52;;;1.30;;
33459;SDS011;19795;53.160;6.612;2022-11-02T10:29:37;12.60;;;1.27;;
33459;SDS011;19795;53.160;6.612;2022-11-02T10:31:41;7.65;;;1.55;;
33459;SDS011;19795;53.160;6.612;2022-11-02T10:34:20;6.78;;;1.30;;
33459;SDS011;19795;53.160;6.612;2022-11-02T10:39:23;8.07;;;1.55;;
33459;SDS011;19795;53.160;6.612;2022-11-02T10:42:20;9.85;;;1.42;;
33459;SDS011;19795;53.160;6.612;2022-11-02T10:53:16;9.82;;;1.27;;
33459;SDS011;19795;53.160;6.612;2022-11-02T10:55:57;5.72;;;1.30;;
33459;SDS011;19795;53.160;6.612;2022-11-02T10:58:27;11.35;;;1.20;;
33459;SDS011;19795;53.160;6.612;2022-11-02T11:01:06;17.40;;;1.63;;
33459;SDS011;19795;53.160;6.612;2022-11-02T11:09:15;15.07;;;1.50;;
33459;SDS011;19795;53.160;6.612;2022-11-02T11:11:52;16.10;;;1.63;;
33459;SDS011;19795;53.160;6.612;2022-11-02T11:14:19;13.73;;;1.60;;
33459;SDS011;19795;53.160;6.612;2022-11-02T11:16:48;9.93;;;1.30;;
33459;SDS011;19795;53.160;6.612;2022-11-02T11:22:00;9.93;;;1.20;;
33459;SDS011;19795;53.160;6.612;2022-11-02T11:24:27;11.50;;;1.27;;
33459;SDS011;19795;53.160;6.612;2022-11-02T11:26:58;7.38;;;1.40;;
33459;SDS011;19795;53.160;6.612;2022-11-02T11:29:24;10.38;;;1.08;;
33459;SDS011;19795;53.160;6.612;2022-11-02T11:31:53;11.23;;;1.67;;
33459;SDS011;19795;53.160;6.612;2022-11-02T11:34:37;11.00;;;1.30;;
33459;SDS011;19795;53.160;6.612;2022-11-02T11:37:04;8.13;;;1.10;;
33459;SDS011;19795;53.160;6.612;2022-11-02T11:39:33;11.05;;;1.30;;
33459;SDS011;19795;53.160;6.612;2022-11-02T11:41:59;13.98;;;1.23;;
33459;SDS011;19795;53.160;6.612;2022-11-02T11:44:28;14.70;;;1.50;;
33459;SDS011;19795;53.160;6.612;2022-11-02T11:46:55;7.38;;;1.30;;
33459;SDS011;19795;53.160;6.612;2022-11-02T11:51:59;6.70;;;0.95;;
33459;SDS011;19795;53.160;6.612;2022-11-02T11:54:30;9.13;;;1.02;;
33459;SDS011;19795;53.160;6.612;2022-11-02T11:56:58;8.18;;;0.80;;
33459;SDS011;19795;53.160;6.612;2022-11-02T12:02:18;7.35;;;0.90;;
33459;SDS011;19795;53.160;6.612;2022-11-02T12:05:07;7.40;;;1.13;;
33459;SDS011;19795;53.160;6.612;2022-11-02T12:10:49;9.02;;;1.20;;
33459;SDS011;19795;53.160;6.612;2022-11-02T12:16:28;10.52;;;1.27;;
33459;SDS011;19795;53.160;6.612;2022-11-02T12:27:18;7.05;;;1.02;;
33459;SDS011;19795;53.160;6.612;2022-11-02T12:43:46;4.63;;;0.90;;
33459;SDS011;19795;53.160;6.612;2022-11-02T12:54:42;11.57;;;1.23;;
33459;SDS011;19795;53.160;6.612;2022-11-02T12:57:32;9.07;;;1.27;;
33459;SDS011;19795;53.160;6.612;2022-11-02T13:00:03;9.32;;;1.20;;
33459;SDS011;19795;53.160;6.612;2022-11-02T13:05:25;13.30;;;1.40;;
33459;SDS011;19795;53.160;6.612;2022-11-02T13:10:49;8.80;;;1.02;;
33459;SDS011;19795;53.160;6.612;2022-11-02T13:13:29;8.55;;;1.33;;
33459;SDS011;19795;53.160;6.612;2022-11-02T13:16:01;8.50;;;1.40;;
33459;SDS011;19795;53.160;6.612;2022-11-02T13:18:36;10.60;;;1.48;;
33459;SDS011;19795;53.160;6.612;2022-11-02T13:21:27;12.23;;;1.52;;
33459;SDS011;19795;53.160;6.612;2022-11-02T13:24:00;11.38;;;1.88;;
33459;SDS011;19795;53.160;6.612;2022-11-02T13:29:04;5.53;;;1.20;;
33459;SDS011;19795;53.160;6.612;2022-11-02T13:31:51;10.93;;;1.33;;
33459;SDS011;19795;53.160;6.612;2022-11-02T13:37:04;11.77;;;1.40;;
33459;SDS011;19795;53.160;6.612;2022-11-02T13:39:35;11.68;;;1.38;;
33459;SDS011;19795;53.160;6.612;2022-11-02T13:42:11;9.52;;;1.25;;
33459;SDS011;19795;53.160;6.612;2022-11-02T13:50:48;7.55;;;1.05;;
33459;SDS011;19795;53.160;6.612;2022-11-02T13:53:18;9.07;;;1.10;;
33459;SDS011;19795;53.160;6.612;2022-11-02T13:55:53;6.22;;;0.90;;
33459;SDS011;19795;53.160;6.612;2022-11-02T13:58:27;8.88;;;1.50;;
33459;SDS011;19795;53.160;6.612;2022-11-02T14:00:57;13.50;;;1.40;;
33459;SDS011;19795;53.160;6.612;2022-11-02T14:03:27;10.23;;;1.60;;
33459;SDS011;19795;53.160;6.612;2022-11-02T14:06:13;10.45;;;1.20;;
33459;SDS011;19795;53.160;6.612;2022-11-02T14:08:41;14.05;;;1.02;;
33459;SDS011;19795;53.160;6.612;2022-11-02T14:12:08;12.00;;;1.20;;
33459;SDS011;19795;53.160;6.612;2022-11-02T14:14:15;8.98;;;1.20;;
33459;SDS011;19795;53.160;6.612;2022-11-02T14:27:05;9.63;;;1.40;;
33459;SDS011;19795;53.160;6.612;2022-11-02T14:29:55;11.88;;;1.67;;
33459;SDS011;19795;53.160;6.612;2022-11-02T14:32:40;9.65;;;1.08;;
33459;SDS011;19795;53.160;6.612;2022-11-02T14:35:26;10.48;;;1.90;;
33459;SDS011;19795;53.160;6.612;2022-11-02T14:38:35;11.77;;;1.10;;
33459;SDS011;19795;53.160;6.612;2022-11-02T14:46:04;11.75;;;1.55;;
33459;SDS011;19795;53.160;6.612;2022-11-02T14:51:16;7.40;;;1.38;;
33459;SDS011;19795;53.160;6.612;2022-11-02T14:54:33;11.48;;;1.20;;
33459;SDS011;19795;53.160;6.612;2022-11-02T14:59:24;13.63;;;1.48;;
33459;SDS011;19795;53.160;6.612;2022-11-02T15:02:04;9.68;;;1.63;;
33459;SDS011;19795;53.160;6.612;2022-11-02T15:07:00;10.20;;;1.42;;
33459;SDS011;19795;53.160;6.612;2022-11-02T15:12:26;13.43;;;1.15;;
33459;SDS011;19795;53.160;6.612;2022-11-02T15:22:35;5.32;;;1.17;;
33459;SDS011;19795;53.160;6.612;2022-11-02T15:27:36;8.85;;;1.38;;
33459;SDS011;19795;53.160;6.612;2022-11-02T15:30:14;12.38;;;1.42;;
33459;SDS011;19795;53.160;6.612;2022-11-02T15:32:46;11.43;;;1.50;;
33459;SDS011;19795;53.160;6.612;2022-11-02T15:35:24;9.73;;;1.20;;
33459;SDS011;19795;53.160;6.612;2022-11-02T15:37:55;11.95;;;2.17;;
33459;SDS011;19795;53.160;6.612;2022-11-02T15:46:32;10.75;;;1.23;;
33459;SDS011;19795;53.160;6.612;2022-11-02T16:00:21;9.68;;;1.67;;
33459;SDS011;19795;53.160;6.612;2022-11-02T16:02:54;14.73;;;1.63;;
33459;SDS011;19795;53.160;6.612;2022-11-02T16:05:30;9.20;;;1.70;;
33459;SDS011;19795;53.160;6.612;2022-11-02T16:07:58;10.48;;;1.70;;
33459;SDS011;19795;53.160;6.612;2022-11-02T16:10:29;10.05;;;1.70;;
33459;SDS011;19795;53.160;6.612;2022-11-02T16:13:14;11.30;;;2.22;;
33459;SDS011;19795;53.160;6.612;2022-11-02T16:18:21;13.40;;;2.15;;
33459;SDS011;19795;53.160;6.612;2022-11-02T16:23:22;12.55;;;2.00;;
33459;SDS011;19795;53.160;6.612;2022-11-02T16:25:51;12.13;;;2.28;;
33459;SDS011;19795;53.160;6.612;2022-11-02T16:28:29;16.45;;;2.20;;
33459;SDS011;19795;53.160;6.612;2022-11-02T16:33:38;11.05;;;1.92;;
33459;SDS011;19795;53.160;6.612;2022-11-02T16:36:05;12.68;;;2.35;;
33459;SDS011;19795;53.160;6.612;2022-11-02T16:38:32;10.68;;;2.10;;
33459;SDS011;19795;53.160;6.612;2022-11-02T16:40:59;11.90;;;1.98;;
33459;SDS011;19795;53.160;6.612;2022-11-02T16:43:26;9.77;;;2.10;;
33459;SDS011;19795;53.160;6.612;2022-11-02T16:45:57;12.93;;;2.58;;
33459;SDS011;19795;53.160;6.612;2022-11-02T16:48:26;16.25;;;2.53;;
33459;SDS011;19795;53.160;6.612;2022-11-02T16:53:41;9.95;;;2.05;;
33459;SDS011;19795;53.160;6.612;2022-11-02T16:56:21;15.60;;;3.60;;
33459;SDS011;19795;53.160;6.612;2022-11-02T16:58:51;10.43;;;2.80;;
33459;SDS011;19795;53.160;6.612;2022-11-02T17:01:27;10.32;;;2.22;;
33459;SDS011;19795;53.160;6.612;2022-11-02T17:03:59;12.07;;;2.25;;
33459;SDS011;19795;53.160;6.612;2022-11-02T17:06:24;11.52;;;2.13;;
33459;SDS011;19795;53.160;6.612;2022-11-02T17:08:51;10.30;;;1.90;;
33459;SDS011;19795;53.160;6.612;2022-11-02T17:11:18;11.05;;;2.03;;
33459;SDS011;19795;53.160;6.612;2022-11-02T17:13:49;9.00;;;2.33;;
33459;SDS011;19795;53.160;6.612;2022-11-02T17:16:18;15.18;;;3.40;;
33459;SDS011;19795;53.160;6.612;2022-11-02T17:18:45;12.80;;;2.00;;
33459;SDS011;19795;53.160;6.612;2022-11-02T17:23:36;9.55;;;1.80;;
33459;SDS011;19795;53.160;6.612;2022-11-02T17:28:53;13.20;;;1.92;;
33459;SDS011;19795;53.160;6.612;2022-11-02T17:31:26;12.43;;;1.40;;
33459;SDS011;19795;53.160;6.612;2022-11-02T17:33:55;10.57;;;2.00;;
33459;SDS011;19795;53.160;6.612;2022-11-02T17:36:24;10.02;;;1.65;;
33459;SDS011;19795;53.160;6.612;2022-11-02T17:38:51;16.45;;;1.90;;
33459;SDS011;19795;53.160;6.612;2022-11-02T17:41:17;14.32;;;2.08;;
33459;SDS011;19795;53.160;6.612;2022-11-02T17:44:02;11.10;;;1.50;;
33459;SDS011;19795;53.160;6.612;2022-11-02T17:46:28;6.80;;;1.90;;
33459;SDS011;19795;53.160;6.612;2022-11-02T17:48:54;7.40;;;1.67;;
33459;SDS011;19795;53.160;6.612;2022-11-02T17:51:21;7.25;;;1.50;;
33459;SDS011;19795;53.160;6.612;2022-11-02T17:53:48;11.43;;;2.65;;
33459;SDS011;19795;53.160;6.612;2022-11-02T17:56:14;8.30;;;1.70;;
33459;SDS011;19795;53.160;6.612;2022-11-02T17:58:40;11.55;;;1.70;;
33459;SDS011;19795;53.160;6.612;2022-11-02T18:01:05;8.65;;;1.80;;
33459;SDS011;19795;53.160;6.612;2022-11-02T18:03:33;13.02;;;1.83;;
33459;SDS011;19795;53.160;6.612;2022-11-02T18:05:59;9.40;;;1.60;;
33459;SDS011;19795;53.160;6.612;2022-11-02T18:08:24;12.05;;;1.58;;
33459;SDS011;19795;53.160;6.612;2022-11-02T18:10:50;9.68;;;1.67;;
33459;SDS011;19795;53.160;6.612;2022-11-02T18:13:17;10.30;;;1.67;;
33459;SDS011;19795;53.160;6.612;2022-11-02T18:15:45;9.85;;;1.52;;
33459;SDS011;19795;53.160;6.612;2022-11-02T18:18:11;9.00;;;1.35;;
33459;SDS011;19795;53.160;6.612;2022-11-02T18:20:37;16.13;;;1.95;;
33459;SDS011;19795;53.160;6.612;2022-11-02T18:23:04;12.35;;;1.50;;
33459;SDS011;19795;53.160;6.612;2022-11-02T18:25:30;12.32;;;1.65;;
33459;SDS011;19795;53.160;6.612;2022-11-02T18:27:57;10.05;;;2.13;;
33459;SDS011;19795;53.160;6.612;2022-11-02T18:30:24;12.30;;;2.00;;
33459;SDS011;19795;53.160;6.612;2022-11-02T18:32:51;11.82;;;1.88;;
33459;SDS011;19795;53.160;6.612;2022-11-02T18:35:17;13.95;;;1.80;;
33459;SDS011;19795;53.160;6.612;2022-11-02T18:37:44;11.63;;;1.73;;
33459;SDS011;19795;53.160;6.612;2022-11-02T18:40:10;13.65;;;1.80;;
33459;SDS011;19795;53.160;6.612;2022-11-02T18:42:38;13.38;;;1.77;;
33459;SDS011;19795;53.160;6.612;2022-11-02T18:45:06;12.55;;;2.40;;
33459;SDS011;19795;53.160;6.612;2022-11-02T18:47:33;15.27;;;1.95;;
33459;SDS011;19795;53.160;6.612;2022-11-02T18:49:59;14.90;;;1.80;;
33459;SDS011;19795;53.160;6.612;2022-11-02T18:52:25;11.35;;;1.65;;
33459;SDS011;19795;53.160;6.612;2022-11-02T18:54:51;9.32;;;1.80;;
33459;SDS011;19795;53.160;6.612;2022-11-02T18:57:17;8.40;;;1.70;;
33459;SDS011;19795;53.160;6.612;2022-11-02T18:59:43;9.55;;;1.85;;
33459;SDS011;19795;53.160;6.612;2022-11-02T19:02:09;12.10;;;2.15;;
33459;SDS011;19795;53.160;6.612;2022-11-02T19:04:35;10.82;;;1.80;;
33459;SDS011;19795;53.160;6.612;2022-11-02T19:07:01;12.60;;;2.45;;
33459;SDS011;19795;53.160;6.612;2022-11-02T19:09:45;10.15;;;1.90;;
33459;SDS011;19795;53.160;6.612;2022-11-02T19:12:12;10.65;;;1.90;;
33459;SDS011;19795;53.160;6.612;2022-11-02T19:14:44;12.40;;;1.75;;
33459;SDS011;19795;53.160;6.612;2022-11-02T19:17:12;9.18;;;1.92;;
33459;SDS011;19795;53.160;6.612;2022-11-02T19:19:38;11.55;;;2.20;;
33459;SDS011;19795;53.160;6.612;2022-11-02T19:22:13;12.15;;;1.98;;
33459;SDS011;19795;53.160;6.612;2022-11-02T19:24:40;11.57;;;2.10;;
33459;SDS011;19795;53.160;6.612;2022-11-02T19:27:05;10.15;;;1.90;;
33459;SDS011;19795;53.160;6.612;2022-11-02T19:29:32;13.30;;;1.90;;
33459;SDS011;19795;53.160;6.612;2022-11-02T19:31:58;12.57;;;1.98;;
33459;SDS011;19795;53.160;6.612;2022-11-02T19:34:24;12.68;;;1.98;;
33459;SDS011;19795;53.160;6.612;2022-11-02T19:36:49;18.15;;;2.22;;
33459;SDS011;19795;53.160;6.612;2022-11-02T19:39:15;11.20;;;2.00;;
33459;SDS011;19795;53.160;6.612;2022-11-02T19:41:40;11.43;;;1.95;;
33459;SDS011;19795;53.160;6.612;2022-11-02T19:44:06;12.82;;;2.25;;
33459;SDS011;19795;53.160;6.612;2022-11-02T19:46:32;15.35;;;2.15;;
33459;SDS011;19795;53.160;6.612;2022-11-02T19:48:58;10.07;;;1.88;;
33459;SDS011;19795;53.160;6.612;2022-11-02T19:51:27;10.70;;;1.65;;
33459;SDS011;19795;53.160;6.612;2022-11-02T19:53:55;8.20;;;1.98;;
33459;SDS011;19795;53.160;6.612;2022-11-02T19:56:22;13.23;;;1.90;;
33459;SDS011;19795;53.160;6.612;2022-11-02T19:58:50;8.65;;;1.65;;
33459;SDS011;19795;53.160;6.612;2022-11-02T20:03:43;13.10;;;1.83;;
33459;SDS011;19795;53.160;6.612;2022-11-02T20:06:11;11.85;;;1.83;;
33459;SDS011;19795;53.160;6.612;2022-11-02T20:08:38;12.52;;;1.85;;
33459;SDS011;19795;53.160;6.612;2022-11-02T20:11:05;10.35;;;2.08;;
33459;SDS011;19795;53.160;6.612;2022-11-02T20:13:32;13.75;;;2.17;;
33459;SDS011;19795;53.160;6.612;2022-11-02T20:15:58;9.13;;;1.63;;
33459;SDS011;19795;53.160;6.612;2022-11-02T20:18:24;13.90;;;2.08;;
33459;SDS011;19795;53.160;6.612;2022-11-02T20:20:50;6.65;;;1.70;;
33459;SDS011;19795;53.160;6.612;2022-11-02T20:23:17;9.00;;;1.80;;
33459;SDS011;19795;53.160;6.612;2022-11-02T20:25:44;10.82;;;1.95;;
33459;SDS011;19795;53.160;6.612;2022-11-02T20:28:10;11.82;;;1.67;;
33459;SDS011;19795;53.160;6.612;2022-11-02T20:30:39;12.07;;;2.03;;
33459;SDS011;19795;53.160;6.612;2022-11-02T20:33:08;12.02;;;1.80;;
33459;SDS011;19795;53.160;6.612;2022-11-02T20:35:34;11.02;;;1.95;;
33459;SDS011;19795;53.160;6.612;2022-11-02T20:38:00;11.55;;;2.05;;
33459;SDS011;19795;53.160;6.612;2022-11-02T20:40:26;12.57;;;2.17;;
33459;SDS011;19795;53.160;6.612;2022-11-02T20:42:53;9.73;;;1.88;;
33459;SDS011;19795;53.160;6.612;2022-11-02T20:45:18;9.05;;;1.70;;
33459;SDS011;19795;53.160;6.612;2022-11-02T20:47:44;9.68;;;1.63;;
33459;SDS011;19795;53.160;6.612;2022-11-02T20:50:10;13.57;;;1.85;;
33459;SDS011;19795;53.160;6.612;2022-11-02T20:52:35;16.42;;;2.17;;
33459;SDS011;19795;53.160;6.612;2022-11-02T20:55:03;14.73;;;1.90;;
33459;SDS011;19795;53.160;6.612;2022-11-02T20:57:29;10.80;;;1.75;;
33459;SDS011;19795;53.160;6.612;2022-11-02T20:59:55;11.48;;;1.60;;
33459;SDS011;19795;53.160;6.612;2022-11-02T21:02:20;11.77;;;1.73;;
33459;SDS011;19795;53.160;6.612;2022-11-02T21:04:47;9.65;;;2.15;;
33459;SDS011;19795;53.160;6.612;2022-11-02T21:07:12;15.35;;;1.80;;
33459;SDS011;19795;53.160;6.612;2022-11-02T21:09:38;8.82;;;1.98;;
33459;SDS011;19795;53.160;6.612;2022-11-02T21:12:04;9.27;;;1.60;;
33459;SDS011;19795;53.160;6.612;2022-11-02T21:14:48;15.43;;;1.77;;
33459;SDS011;19795;53.160;6.612;2022-11-02T21:17:13;12.23;;;1.77;;
33459;SDS011;19795;53.160;6.612;2022-11-02T21:19:39;16.00;;;1.83;;
33459;SDS011;19795;53.160;6.612;2022-11-02T21:22:05;14.25;;;2.53;;
33459;SDS011;19795;53.160;6.612;2022-11-02T21:24:31;13.93;;;2.08;;
33459;SDS011;19795;53.160;6.612;2022-11-02T21:26:56;12.30;;;1.98;;
33459;SDS011;19795;53.160;6.612;2022-11-02T21:29:22;15.55;;;2.08;;
33459;SDS011;19795;53.160;6.612;2022-11-02T21:31:48;12.98;;;1.67;;
33459;SDS011;19795;53.160;6.612;2022-11-02T21:34:14;14.07;;;2.13;;
33459;SDS011;19795;53.160;6.612;2022-11-02T21:36:39;12.30;;;1.88;;
33459;SDS011;19795;53.160;6.612;2022-11-02T21:39:05;12.40;;;1.88;;
33459;SDS011;19795;53.160;6.612;2022-11-02T21:41:31;12.05;;;1.83;;
33459;SDS011;19795;53.160;6.612;2022-11-02T21:44:00;8.50;;;1.83;;
33459;SDS011;19795;53.160;6.612;2022-11-02T21:46:26;13.88;;;2.08;;
33459;SDS011;19795;53.160;6.612;2022-11-02T21:48:53;16.65;;;2.00;;
33459;SDS011;19795;53.160;6.612;2022-11-02T21:51:19;10.18;;;1.90;;
33459;SDS011;19795;53.160;6.612;2022-11-02T21:53:46;10.15;;;1.85;;
33459;SDS011;19795;53.160;6.612;2022-11-02T21:56:14;12.55;;;1.73;;
33459;SDS011;19795;53.160;6.612;2022-11-02T21:58:41;15.88;;;2.40;;
33459;SDS011;19795;53.160;6.612;2022-11-02T22:01:26;13.57;;;2.00;;
